Time;durP1;ratioP1;P1;durP2;ratioP2;P2;SDS_P1;SDS_P2;PMS_P1;PMS_P2;Temp;Humidity;BMP_temperature;BMP_pressure;BME280_temperature;BME280_humidity;BME280_pressure;Samples;Min_cycle;Max_cycle;Signal;HPM_P1;HPM_P2
2022/02/16 00:00:23;;;;;;;2.30;1.93;;;8.40;99.90;;;;;;5055140;28;20175;-68
2022/02/16 00:02:49;;;;;;;1.60;1.50;;;8.30;99.90;;;;;;5055888;28;20197;-67
2022/02/16 00:05:16;;;;;;;2.30;2.10;;;8.30;99.90;;;;;;5038268;28;20195;-68
2022/02/16 00:07:42;;;;;;;2.40;2.20;;;8.20;99.90;;;;;;5034663;28;20179;-69
2022/02/16 00:10:13;;;;;;;2.40;2.30;;;8.20;99.90;;;;;;5035064;28;20398;-67
2022/02/16 00:12:39;;;;;;;2.60;2.50;;;8.20;99.90;;;;;;5034136;28;20203;-67
2022/02/16 00:15:07;;;;;;;2.60;2.40;;;8.20;99.90;;;;;;5050638;28;20897;-67
2022/02/16 00:17:33;;;;;;;3.10;2.90;;;8.20;99.90;;;;;;5048570;28;20863;-67
2022/02/16 00:19:59;;;;;;;2.70;2.50;;;8.30;99.90;;;;;;5054188;28;20447;-67
2022/02/16 00:32:31;;;;;;;2.23;2.07;;;8.30;99.90;;;;;;5049106;28;20465;-66
2022/02/16 00:38:34;;;;;;;1.80;1.70;;;8.30;99.90;;;;;;5052103;28;20227;-67
2022/02/16 00:40:59;;;;;;;2.10;2.00;;;8.30;99.90;;;;;;5038899;28;20834;-66
2022/02/16 00:43:25;;;;;;;2.10;2.00;;;8.30;99.90;;;;;;5064308;28;20479;-66
2022/02/16 00:45:50;;;;;;;2.23;1.90;;;8.30;99.90;;;;;;5054121;28;20182;-67
2022/02/16 00:48:16;;;;;;;1.90;1.80;;;8.30;99.90;;;;;;5054092;28;20660;-67
2022/02/16 00:50:42;;;;;;;3.23;2.20;;;8.30;99.90;;;;;;5054756;28;20173;-69
2022/02/16 00:53:07;;;;;;;2.37;2.27;;;8.30;99.90;;;;;;5058026;28;20205;-67
2022/02/16 00:55:33;;;;;;;2.07;1.93;;;8.30;99.90;;;;;;5054035;28;20159;-68
2022/02/16 00:57:59;;;;;;;2.50;2.30;;;8.30;99.90;;;;;;5053825;28;20178;-67
2022/02/16 01:00:24;;;;;;;2.20;2.10;;;8.40;99.90;;;;;;5054065;28;20166;-67
2022/02/16 01:02:50;;;;;;;2.20;2.00;;;8.40;99.90;;;;;;5054421;28;20198;-67
2022/02/16 01:05:15;;;;;;;2.67;2.40;;;8.40;99.90;;;;;;5053703;28;20184;-68
2022/02/16 01:07:41;;;;;;;2.33;2.00;;;8.40;99.90;;;;;;5053740;28;20201;-67
2022/02/16 01:10:07;;;;;;;1.63;1.50;;;8.40;99.90;;;;;;5053551;28;20175;-69
2022/02/16 01:12:33;;;;;;;2.00;1.90;;;8.40;99.90;;;;;;5052954;28;20197;-68
2022/02/16 01:14:59;;;;;;;2.20;2.00;;;8.40;99.90;;;;;;5054631;28;20474;-67
2022/02/16 01:17:24;;;;;;;1.80;1.70;;;8.40;99.90;;;;;;5053555;28;20167;-67
2022/02/16 01:19:50;;;;;;;2.07;1.70;;;8.40;99.90;;;;;;5053531;28;20196;-67
2022/02/16 01:22:15;;;;;;;1.53;1.43;;;8.40;99.90;;;;;;5052697;28;20222;-68
2022/02/16 01:24:41;;;;;;;1.60;1.47;;;8.40;99.90;;;;;;5054243;28;20590;-68
2022/02/16 01:27:06;;;;;;;1.77;1.67;;;8.40;99.90;;;;;;5053254;28;20226;-68
2022/02/16 01:29:32;;;;;;;1.70;1.60;;;8.40;99.90;;;;;;5053134;28;20252;-68
2022/02/16 01:31:58;;;;;;;1.90;1.80;;;8.40;99.90;;;;;;5052611;28;20534;-68
2022/02/16 01:34:24;;;;;;;1.47;1.37;;;8.40;99.90;;;;;;5087102;22;20231;-69
2022/02/16 01:36:50;;;;;;;1.60;1.50;;;8.40;99.90;;;;;;5063574;28;20466;-69
2022/02/16 01:39:15;;;;;;;1.40;1.30;;;8.40;99.90;;;;;;5052772;28;20239;-69
2022/02/16 01:41:41;;;;;;;1.57;1.47;;;8.30;99.90;;;;;;5053732;28;20174;-69
2022/02/16 01:44:06;;;;;;;1.00;1.00;;;8.40;99.90;;;;;;5041647;28;20571;-70
2022/02/16 01:46:46;;;;;;;1.60;1.50;;;8.40;99.90;;;;;;5050097;28;20188;-70
2022/02/16 01:49:12;;;;;;;2.40;1.50;;;8.40;99.90;;;;;;5052638;28;20181;-70
2022/02/16 01:51:37;;;;;;;1.83;1.73;;;8.40;99.90;;;;;;5052419;28;20905;-69
2022/02/16 01:54:03;;;;;;;1.80;1.70;;;8.40;99.90;;;;;;5049161;28;20227;-70
2022/02/16 01:56:29;;;;;;;1.63;1.53;;;8.40;99.90;;;;;;5052006;28;20182;-70
2022/02/16 01:58:54;;;;;;;2.30;1.87;;;8.40;99.90;;;;;;5050989;28;20813;-69
2022/02/16 02:01:19;;;;;;;1.73;1.63;;;8.40;99.90;;;;;;5052219;28;20162;-69
2022/02/16 02:03:45;;;;;;;1.83;1.73;;;8.40;99.90;;;;;;5052029;28;20280;-70
2022/02/16 02:06:10;;;;;;;2.20;2.00;;;8.40;99.90;;;;;;5053337;28;20176;-69
2022/02/16 02:08:36;;;;;;;1.70;1.60;;;8.40;99.90;;;;;;5052082;28;20184;-69
2022/02/16 02:11:02;;;;;;;1.93;1.83;;;8.50;99.90;;;;;;5052236;28;20180;-69
2022/02/16 02:13:28;;;;;;;1.53;1.43;;;8.40;99.90;;;;;;5051564;28;20216;-68
2022/02/16 02:15:54;;;;;;;2.03;1.70;;;8.40;99.90;;;;;;5052083;28;20496;-69
2022/02/16 02:18:20;;;;;;;1.80;1.70;;;8.40;99.90;;;;;;5051984;28;20182;-70
2022/02/16 02:20:45;;;;;;;1.97;1.83;;;8.50;99.90;;;;;;5051949;28;20166;-69
2022/02/16 02:23:12;;;;;;;1.60;1.50;;;8.50;99.90;;;;;;5051766;28;20439;-69
2022/02/16 02:25:49;;;;;;;2.00;1.63;;;8.40;99.90;;;;;;5052031;28;20316;-69
2022/02/16 02:28:19;;;;;;;1.70;1.60;;;8.40;99.90;;;;;;5053279;28;20822;-68
2022/02/16 02:30:46;;;;;;;1.70;1.60;;;8.40;99.90;;;;;;5051897;28;20761;-69
2022/02/16 02:33:13;;;;;;;1.50;1.40;;;8.40;99.90;;;;;;5051137;28;20467;-70
2022/02/16 02:35:38;;;;;;;1.63;1.40;;;8.50;99.90;;;;;;5051636;28;20412;-68
2022/02/16 02:38:04;;;;;;;1.47;1.37;;;8.40;99.90;;;;;;5051367;28;20397;-69
2022/02/16 02:40:30;;;;;;;1.70;1.60;;;8.40;99.90;;;;;;5051749;28;20196;-70
2022/02/16 02:42:55;;;;;;;1.57;1.47;;;8.40;99.90;;;;;;5051279;28;20451;-70
2022/02/16 02:45:21;;;;;;;1.33;1.30;;;8.50;99.90;;;;;;5014524;28;22089;-69
2022/02/16 02:47:46;;;;;;;1.60;1.50;;;8.50;99.90;;;;;;5046731;28;20281;-70
2022/02/16 02:50:12;;;;;;;1.50;1.30;;;8.40;99.90;;;;;;5055266;28;20192;-70
2022/02/16 02:52:38;;;;;;;1.50;1.43;;;8.50;99.90;;;;;;5051229;28;20194;-69
2022/02/16 02:55:05;;;;;;;1.83;1.73;;;8.50;99.90;;;;;;5051436;28;20563;-69
2022/02/16 02:57:31;;;;;;;1.50;1.40;;;8.50;99.90;;;;;;5051394;28;20180;-69
2022/02/16 02:59:56;;;;;;;1.57;1.47;;;8.50;99.90;;;;;;5052791;28;20746;-69
2022/02/16 03:02:23;;;;;;;1.47;1.43;;;8.50;99.90;;;;;;5050655;28;20178;-69
2022/02/16 03:04:49;;;;;;;1.53;1.43;;;8.60;99.90;;;;;;5051255;28;20197;-70
2022/02/16 03:07:15;;;;;;;1.73;1.63;;;8.50;99.90;;;;;;5051450;28;20440;-70
2022/02/16 03:09:41;;;;;;;1.80;1.70;;;8.60;99.90;;;;;;5051130;28;20821;-70
2022/02/16 03:12:07;;;;;;;1.70;1.60;;;8.60;99.90;;;;;;5033116;28;20423;-70
2022/02/16 03:14:34;;;;;;;1.50;1.40;;;8.60;99.90;;;;;;5051392;28;20566;-69
2022/02/16 03:16:59;;;;;;;1.80;1.70;;;8.60;99.90;;;;;;5051179;28;20404;-70
2022/02/16 03:19:25;;;;;;;1.40;1.30;;;8.60;99.90;;;;;;5051208;28;20408;-70
2022/02/16 03:21:50;;;;;;;1.40;1.30;;;8.60;99.90;;;;;;5050627;28;20175;-69
2022/02/16 03:24:16;;;;;;;1.50;1.40;;;8.60;99.90;;;;;;5050794;28;20654;-70
2022/02/16 03:26:41;;;;;;;1.50;1.40;;;8.60;99.90;;;;;;5051271;28;20166;-70
2022/02/16 03:29:07;;;;;;;1.73;1.63;;;8.60;99.90;;;;;;5051291;28;20181;-70
2022/02/16 03:31:33;;;;;;;1.60;1.50;;;8.60;99.90;;;;;;5050723;28;20178;-69
2022/02/16 03:33:58;;;;;;;1.93;1.47;;;8.60;99.90;;;;;;5050703;28;20205;-70
2022/02/16 03:36:26;;;;;;;2.03;1.93;;;8.60;99.90;;;;;;5051492;28;20226;-70
2022/02/16 03:38:51;;;;;;;1.70;1.50;;;8.60;99.90;;;;;;5050925;28;20195;-69
2022/02/16 03:41:17;;;;;;;1.80;1.70;;;8.60;99.90;;;;;;5051391;28;20433;-69
2022/02/16 03:43:42;;;;;;;1.63;1.53;;;8.60;99.90;;;;;;5051775;28;20220;-70
2022/02/16 03:46:08;;;;;;;1.90;1.80;;;8.60;99.90;;;;;;5050883;28;20178;-70
2022/02/16 03:48:33;;;;;;;1.63;1.53;;;8.60;99.90;;;;;;5051052;28;20181;-70
2022/02/16 03:50:59;;;;;;;1.53;1.43;;;8.60;99.90;;;;;;5051212;28;20178;-69
2022/02/16 03:53:25;;;;;;;1.60;1.50;;;8.70;99.90;;;;;;5051874;28;20263;-69
2022/02/16 03:55:50;;;;;;;1.53;1.43;;;8.60;99.90;;;;;;5050906;28;20167;-70
2022/02/16 03:58:16;;;;;;;1.30;1.30;;;8.70;99.90;;;;;;5050963;28;20249;-70
2022/02/16 04:00:41;;;;;;;2.33;2.23;;;8.70;99.90;;;;;;5032882;28;20170;-69
2022/02/16 04:03:08;;;;;;;1.70;1.37;;;8.70;99.90;;;;;;5054264;28;20771;-69
2022/02/16 04:05:34;;;;;;;1.47;1.37;;;8.70;99.90;;;;;;5072972;28;20598;-69
2022/02/16 04:07:59;;;;;;;1.50;1.40;;;8.80;99.90;;;;;;5074097;28;20406;-71
2022/02/16 04:10:25;;;;;;;1.37;1.23;;;8.80;99.90;;;;;;5074674;28;20177;-70
2022/02/16 04:12:51;;;;;;;1.57;1.47;;;8.80;99.90;;;;;;5073902;28;20203;-70
2022/02/16 04:15:16;;;;;;;1.73;1.40;;;8.70;99.90;;;;;;5072652;28;20181;-69
2022/02/16 04:17:42;;;;;;;1.40;1.30;;;8.80;99.90;;;;;;5074377;28;20173;-69
2022/02/16 04:20:09;;;;;;;1.47;1.37;;;8.80;99.90;;;;;;5074456;28;20188;-69
2022/02/16 04:22:45;;;;;;;1.30;1.17;;;8.80;99.90;;;;;;5056068;28;20181;-69
2022/02/16 04:25:12;;;;;;;2.40;1.00;;;8.80;99.90;;;;;;5072439;28;20427;-69
2022/02/16 04:27:37;;;;;;;1.17;1.07;;;8.80;99.90;;;;;;5074304;28;20446;-69
2022/02/16 04:30:05;;;;;;;1.00;1.00;;;8.80;99.90;;;;;;5056030;28;20431;-69
2022/02/16 04:32:31;;;;;;;1.23;1.13;;;8.90;99.90;;;;;;5073723;28;20224;-69
2022/02/16 04:34:57;;;;;;;2.30;1.00;;;8.80;99.90;;;;;;5073783;28;20450;-69
2022/02/16 04:37:22;;;;;;;1.20;1.10;;;8.80;99.90;;;;;;5072416;28;20223;-70
2022/02/16 04:39:48;;;;;;;0.90;0.90;;;8.80;99.90;;;;;;5055061;28;20248;-70
2022/02/16 04:42:14;;;;;;;1.10;0.90;;;8.90;99.90;;;;;;5053684;28;20178;-70
2022/02/16 04:44:39;;;;;;;0.87;0.87;;;8.90;99.90;;;;;;5035890;28;20434;-69
2022/02/16 04:47:05;;;;;;;1.00;0.90;;;8.80;99.90;;;;;;5049111;28;20254;-70
2022/02/16 04:49:31;;;;;;;1.23;0.90;;;8.80;99.90;;;;;;5054728;28;20186;-70
2022/02/16 04:51:56;;;;;;;1.10;1.00;;;8.90;99.90;;;;;;5052613;28;20166;-70
2022/02/16 04:54:22;;;;;;;0.90;0.90;;;8.90;99.90;;;;;;5053720;28;20453;-69
2022/02/16 04:56:47;;;;;;;1.07;0.97;;;8.90;99.90;;;;;;5053522;28;20252;-69
2022/02/16 04:59:13;;;;;;;1.00;0.90;;;8.90;99.90;;;;;;5054692;28;20198;-69
2022/02/16 05:01:39;;;;;;;1.00;1.00;;;8.80;99.90;;;;;;5035421;28;20560;-69
2022/02/16 05:04:04;;;;;;;1.07;1.03;;;8.90;99.90;;;;;;5053686;28;20672;-69
2022/02/16 05:06:30;;;;;;;1.00;1.00;;;8.80;99.90;;;;;;5053604;28;20181;-69
2022/02/16 05:08:57;;;;;;;0.80;0.80;;;8.80;99.90;;;;;;5053559;28;20182;-69
2022/02/16 05:11:23;;;;;;;1.27;1.10;;;8.90;99.90;;;;;;5038509;28;20181;-70
2022/02/16 05:13:49;;;;;;;1.00;1.00;;;8.90;99.90;;;;;;5053281;28;20471;-69
2022/02/16 05:16:14;;;;;;;0.77;0.77;;;8.90;99.90;;;;;;5053415;28;20440;-69
2022/02/16 05:18:40;;;;;;;0.90;0.90;;;8.90;99.90;;;;;;5035479;28;20170;-70
2022/02/16 05:21:05;;;;;;;1.63;1.03;;;8.90;99.90;;;;;;5054439;28;20735;-69
2022/02/16 05:23:31;;;;;;;1.10;1.03;;;8.80;99.90;;;;;;5052969;28;20276;-69
2022/02/16 05:25:57;;;;;;;1.40;1.30;;;8.80;99.90;;;;;;5053247;28;20174;-69
2022/02/16 05:28:23;;;;;;;0.97;0.97;;;8.80;99.90;;;;;;5035267;28;20184;-69
2022/02/16 05:30:48;;;;;;;1.33;1.23;;;8.90;99.90;;;;;;5052954;28;20404;-69
2022/02/16 05:33:14;;;;;;;1.33;1.23;;;8.80;99.90;;;;;;5052528;28;20579;-69
2022/02/16 05:35:39;;;;;;;1.20;1.20;;;8.80;99.90;;;;;;5053098;28;20197;-69
2022/02/16 05:38:05;;;;;;;1.00;1.00;;;8.90;99.90;;;;;;5053035;28;20173;-69
2022/02/16 05:40:31;;;;;;;1.30;1.30;;;8.90;99.90;;;;;;5052860;28;20189;-69
2022/02/16 05:42:57;;;;;;;1.40;1.30;;;8.90;99.90;;;;;;5051985;28;20940;-69
2022/02/16 05:45:23;;;;;;;1.27;1.20;;;8.90;99.90;;;;;;5035019;28;20182;-69
2022/02/16 05:47:48;;;;;;;1.70;1.60;;;8.80;99.90;;;;;;5053082;28;20423;-69
2022/02/16 05:50:14;;;;;;;1.10;1.10;;;8.80;99.90;;;;;;5052597;28;20173;-69
2022/02/16 05:52:40;;;;;;;0.90;0.90;;;8.90;99.90;;;;;;5053460;28;20194;-69
2022/02/16 05:55:05;;;;;;;1.40;1.30;;;8.90;99.90;;;;;;5052519;28;20196;-70
2022/02/16 05:57:32;;;;;;;1.20;1.20;;;8.90;99.90;;;;;;5052644;28;20170;-69
2022/02/16 05:59:58;;;;;;;1.07;1.07;;;8.90;99.90;;;;;;5051105;28;20416;-70
2022/02/16 06:02:24;;;;;;;0.90;0.90;;;8.90;99.90;;;;;;5051764;28;20504;-70
2022/02/16 06:04:49;;;;;;;1.00;1.00;;;8.90;99.90;;;;;;5051981;28;20441;-69
2022/02/16 06:07:15;;;;;;;1.00;0.90;;;8.90;99.90;;;;;;5052815;28;20569;-70
2022/02/16 06:09:40;;;;;;;0.90;0.90;;;8.90;99.90;;;;;;5052484;28;20492;-70
2022/02/16 06:12:07;;;;;;;1.00;0.77;;;8.90;99.90;;;;;;5051660;28;20612;-70
2022/02/16 06:14:32;;;;;;;1.00;0.87;;;9.00;99.90;;;;;;5053187;28;20205;-69
2022/02/16 06:16:58;;;;;;;0.80;0.80;;;8.90;99.90;;;;;;5034819;28;20418;-70
2022/02/16 06:19:23;;;;;;;1.13;0.60;;;8.90;99.90;;;;;;5052151;28;20188;-70
2022/02/16 06:21:49;;;;;;;0.77;0.77;;;9.00;99.90;;;;;;5060711;28;20173;-70
2022/02/16 06:24:14;;;;;;;1.67;1.10;;;9.00;99.90;;;;;;5054744;28;20202;-69
2022/02/16 06:26:40;;;;;;;1.73;1.00;;;9.00;99.90;;;;;;5047637;28;20222;-70
2022/02/16 06:29:05;;;;;;;0.87;0.80;;;9.00;99.90;;;;;;5043768;28;20190;-69
2022/02/16 06:31:31;;;;;;;2.47;1.23;;;9.00;99.90;;;;;;5045051;28;20666;-69
2022/02/16 06:33:57;;;;;;;0.90;0.90;;;9.00;99.90;;;;;;5047876;28;20221;-69
2022/02/16 06:36:24;;;;;;;1.27;0.80;;;9.00;99.90;;;;;;5048311;28;20176;-69
2022/02/16 06:38:50;;;;;;;1.20;0.87;;;9.00;99.90;;;;;;5048761;28;20424;-70
2022/02/16 06:41:17;;;;;;;1.20;1.10;;;9.10;99.90;;;;;;5046801;28;20422;-70
2022/02/16 06:43:42;;;;;;;0.87;0.87;;;9.10;99.90;;;;;;5028370;28;20499;-70
2022/02/16 06:46:09;;;;;;;1.10;1.00;;;9.00;99.90;;;;;;5045131;28;20419;-70
2022/02/16 06:48:34;;;;;;;1.00;0.90;;;9.10;99.90;;;;;;5046109;28;20625;-70
2022/02/16 06:51:00;;;;;;;1.03;1.00;;;9.10;99.90;;;;;;5047346;28;20423;-70
2022/02/16 06:53:25;;;;;;;0.90;0.90;;;9.10;99.90;;;;;;5041438;28;20664;-70
2022/02/16 06:55:51;;;;;;;1.50;1.40;;;9.10;99.90;;;;;;5049356;28;20173;-70
2022/02/16 06:58:17;;;;;;;1.57;1.03;;;9.10;99.90;;;;;;5048042;28;20268;-68
2022/02/16 07:00:43;;;;;;;2.07;1.97;;;9.10;99.90;;;;;;5052195;28;20261;-69
2022/02/16 07:03:09;;;;;;;1.23;0.93;;;9.10;99.90;;;;;;5046259;28;21059;-71
2022/02/16 07:05:34;;;;;;;1.00;0.90;;;9.10;99.90;;;;;;5045723;28;20889;-70
2022/02/16 07:07:59;;;;;;;0.80;0.80;;;9.00;99.90;;;;;;5050971;28;20185;-68
2022/02/16 07:10:25;;;;;;;1.33;0.90;;;9.00;99.90;;;;;;5046011;28;20345;-70
2022/02/16 07:12:52;;;;;;;0.90;0.87;;;9.00;99.90;;;;;;5047188;28;20221;-69
2022/02/16 07:15:17;;;;;;;1.00;0.93;;;9.10;99.90;;;;;;5051326;28;20174;-70
2022/02/16 07:17:43;;;;;;;0.80;0.80;;;9.00;99.90;;;;;;5050621;28;20759;-69
2022/02/16 07:20:14;;;;;;;0.70;0.70;;;9.10;99.90;;;;;;5051982;28;20411;-69
2022/02/16 07:22:48;;;;;;;1.00;0.90;;;9.10;99.90;;;;;;5049982;28;20711;-69
2022/02/16 07:25:15;;;;;;;0.70;0.70;;;9.10;99.90;;;;;;5051355;28;20531;-69
2022/02/16 07:27:41;;;;;;;0.90;0.90;;;9.10;99.90;;;;;;5051079;28;20409;-69
2022/02/16 07:30:10;;;;;;;1.23;0.80;;;9.10;99.90;;;;;;5051167;28;20421;-70
2022/02/16 07:32:42;;;;;;;0.87;0.87;;;9.20;99.90;;;;;;5036655;28;20484;-69
2022/02/16 07:35:09;;;;;;;1.03;0.90;;;9.10;99.90;;;;;;5047140;28;20474;-70
2022/02/16 07:37:35;;;;;;;0.80;0.80;;;9.20;99.90;;;;;;5050030;28;20466;-69
2022/02/16 07:40:00;;;;;;;1.20;1.10;;;9.20;99.90;;;;;;5047758;28;20477;-70
2022/02/16 07:42:27;;;;;;;0.90;0.90;;;9.20;99.90;;;;;;5058287;28;20173;-70
2022/02/16 07:44:53;;;;;;;1.00;1.00;;;9.20;99.90;;;;;;5061383;28;20597;-69
2022/02/16 07:47:19;;;;;;;1.07;1.00;;;9.20;99.90;;;;;;5044797;28;20486;-69
2022/02/16 07:49:45;;;;;;;0.73;0.73;;;9.30;99.90;;;;;;5049378;28;20499;-70
2022/02/16 07:52:10;;;;;;;0.83;0.83;;;9.30;99.90;;;;;;5052632;28;20178;-70
2022/02/16 07:54:36;;;;;;;0.60;0.60;;;9.30;99.90;;;;;;5051970;28;20263;-69
2022/02/16 07:57:02;;;;;;;1.13;0.80;;;9.30;99.90;;;;;;5052141;28;20272;-69
2022/02/16 07:59:28;;;;;;;0.97;0.97;;;9.30;99.90;;;;;;5052422;28;20251;-69
2022/02/16 08:01:55;;;;;;;0.80;0.80;;;9.30;99.90;;;;;;5051790;28;20224;-69
2022/02/16 08:04:21;;;;;;;0.90;0.90;;;9.30;99.90;;;;;;5054134;28;20975;-69
2022/02/16 08:06:48;;;;;;;2.37;1.57;;;9.30;99.90;;;;;;5054149;28;20502;-69
2022/02/16 08:09:14;;;;;;;1.20;1.20;;;9.30;99.90;;;;;;5053922;28;20189;-69
2022/02/16 08:11:40;;;;;;;1.30;1.20;;;9.30;99.90;;;;;;5053758;28;20430;-70
2022/02/16 08:14:07;;;;;;;1.30;1.20;;;9.30;99.90;;;;;;5054742;28;20468;-70
2022/02/16 08:16:36;;;;;;;1.20;1.20;;;9.40;99.90;;;;;;5053968;28;20469;-69
2022/02/16 08:19:03;;;;;;;1.80;1.30;;;9.30;99.90;;;;;;5054160;28;20462;-69
2022/02/16 08:21:29;;;;;;;1.20;1.20;;;9.40;99.90;;;;;;5053960;28;20888;-69
2022/02/16 08:23:54;;;;;;;1.40;1.30;;;9.40;99.90;;;;;;5052989;28;20436;-69
2022/02/16 08:26:20;;;;;;;1.90;1.80;;;9.40;99.90;;;;;;5033782;28;20580;-71
2022/02/16 08:28:46;;;;;;;1.57;1.40;;;9.40;99.90;;;;;;5044291;28;20308;-69
2022/02/16 08:31:12;;;;;;;1.50;1.40;;;9.40;99.90;;;;;;5053651;28;20193;-69
2022/02/16 08:33:37;;;;;;;1.80;1.70;;;9.30;99.90;;;;;;5039246;28;20222;-68
2022/02/16 08:36:04;;;;;;;1.87;1.60;;;9.30;99.90;;;;;;5045606;28;20951;-68
2022/02/16 08:38:29;;;;;;;1.30;1.20;;;9.30;99.90;;;;;;5056824;28;20827;-69
2022/02/16 08:40:55;;;;;;;1.50;1.40;;;9.30;99.90;;;;;;5033185;28;20428;-69
2022/02/16 08:43:21;;;;;;;1.53;1.43;;;9.40;99.90;;;;;;5049705;28;20205;-69
2022/02/16 08:45:46;;;;;;;1.53;1.43;;;9.40;99.90;;;;;;5031068;28;20190;-70
2022/02/16 08:48:12;;;;;;;1.87;1.33;;;9.40;99.90;;;;;;5032982;28;20194;-68
2022/02/16 08:50:38;;;;;;;1.17;1.17;;;9.40;99.90;;;;;;5050067;28;20182;-69
2022/02/16 08:53:03;;;;;;;1.10;1.10;;;9.50;99.90;;;;;;5049496;28;20221;-69
2022/02/16 08:55:30;;;;;;;1.40;1.40;;;9.60;99.90;;;;;;5050006;28;20186;-69
2022/02/16 08:57:55;;;;;;;1.80;1.70;;;9.60;99.90;;;;;;5049705;28;20197;-69
2022/02/16 09:00:21;;;;;;;1.70;1.60;;;9.60;99.90;;;;;;5050672;28;20519;-70
2022/02/16 09:02:47;;;;;;;1.60;1.50;;;9.60;99.90;;;;;;5049082;28;20181;-70
2022/02/16 09:05:13;;;;;;;1.47;1.37;;;9.60;99.90;;;;;;5048617;28;20220;-70
2022/02/16 09:07:38;;;;;;;1.57;1.57;;;9.50;99.90;;;;;;5049972;28;20181;-70
2022/02/16 09:10:07;;;;;;;1.90;1.80;;;9.60;99.90;;;;;;5051273;28;20271;-69
2022/02/16 09:12:33;;;;;;;1.83;1.70;;;9.60;99.90;;;;;;5049395;28;20484;-69
2022/02/16 09:14:59;;;;;;;2.00;1.90;;;9.60;99.90;;;;;;5084714;22;20612;-67
2022/02/16 09:17:25;;;;;;;2.90;1.80;;;9.70;99.90;;;;;;5050456;28;20177;-68
2022/02/16 09:19:52;;;;;;;2.00;1.90;;;9.60;99.90;;;;;;5049593;28;20396;-68
2022/02/16 09:22:18;;;;;;;3.93;2.47;;;9.60;99.90;;;;;;5052643;28;20522;-68
2022/02/16 09:24:44;;;;;;;2.20;2.10;;;9.60;99.90;;;;;;5052354;28;20826;-69
2022/02/16 09:27:10;;;;;;;2.67;2.47;;;9.60;99.90;;;;;;5049319;28;20409;-68
2022/02/16 09:29:36;;;;;;;2.43;2.30;;;9.60;99.90;;;;;;5049338;28;20267;-69
2022/02/16 09:32:02;;;;;;;2.77;2.60;;;9.70;99.90;;;;;;5060365;28;20890;-69
2022/02/16 09:34:27;;;;;;;2.53;2.33;;;9.70;99.90;;;;;;5065697;28;20297;-69
2022/02/16 09:36:53;;;;;;;2.40;2.30;;;9.80;99.90;;;;;;5046481;28;20566;-69
2022/02/16 09:39:19;;;;;;;3.00;2.57;;;9.90;99.90;;;;;;5049537;28;20511;-68
2022/02/16 09:41:46;;;;;;;2.53;2.43;;;9.90;99.90;;;;;;5052337;28;20181;-68
2022/02/16 09:44:14;;;;;;;2.97;2.77;;;9.90;99.90;;;;;;5052496;28;20196;-68
2022/02/16 09:46:39;;;;;;;3.40;2.87;;;9.90;99.90;;;;;;5049118;28;20423;-68
2022/02/16 09:49:05;;;;;;;3.07;2.87;;;10.00;99.90;;;;;;5049023;28;20432;-68
2022/02/16 09:51:30;;;;;;;3.60;2.80;;;10.00;99.90;;;;;;5049457;28;20572;-68
2022/02/16 09:53:56;;;;;;;2.90;2.70;;;10.00;99.90;;;;;;5032862;28;20240;-68
2022/02/16 09:56:22;;;;;;;2.57;2.33;;;10.10;99.90;;;;;;5049094;28;20173;-68
2022/02/16 09:58:49;;;;;;;2.80;2.60;;;10.10;99.90;;;;;;5044956;28;20576;-68
2022/02/16 10:01:16;;;;;;;2.70;2.50;;;10.10;99.90;;;;;;5048625;28;20444;-69
2022/02/16 10:04:03;;;;;;;2.17;1.90;;;10.20;99.90;;;;;;5040186;28;20472;-68
2022/02/16 10:06:36;;;;;;;2.93;2.63;;;10.20;99.90;;;;;;5041848;28;20417;-69
2022/02/16 10:09:02;;;;;;;2.70;2.50;;;10.20;99.90;;;;;;5048813;28;20993;-67
2022/02/16 10:11:28;;;;;;;2.27;2.07;;;10.20;99.90;;;;;;5031007;28;20424;-68
2022/02/16 10:14:15;;;;;;;2.50;2.30;;;10.30;99.90;;;;;;5048358;28;20499;-68
2022/02/16 10:16:40;;;;;;;2.47;2.27;;;10.30;99.90;;;;;;5047021;28;20284;-68
2022/02/16 10:19:06;;;;;;;3.73;2.97;;;10.30;99.90;;;;;;5048373;28;21091;-68
2022/02/16 10:21:32;;;;;;;2.00;1.90;;;10.30;99.90;;;;;;5048918;28;20167;-67
2022/02/16 10:23:57;;;;;;;2.30;2.20;;;10.30;99.90;;;;;;5048329;28;20275;-69
2022/02/16 10:26:50;;;;;;;2.50;2.30;;;10.40;99.90;;;;;;5067936;28;20209;-68
2022/02/16 10:29:25;;;;;;;2.73;2.57;;;10.50;99.90;;;;;;5052067;28;20189;-68
2022/02/16 10:31:50;;;;;;;2.03;1.93;;;10.50;99.90;;;;;;5048054;28;20411;-69
2022/02/16 10:34:16;;;;;;;1.97;1.87;;;10.50;99.90;;;;;;5048471;28;21081;-69
2022/02/16 10:36:46;;;;;;;2.10;2.00;;;10.50;99.90;;;;;;5049528;28;20608;-69
2022/02/16 10:39:15;;;;;;;2.60;1.80;;;10.60;99.90;;;;;;5061800;28;20446;-68
2022/02/16 10:41:46;;;;;;;2.03;1.77;;;10.60;99.90;;;;;;5068591;28;20416;-68
2022/02/16 10:44:19;;;;;;;2.43;2.03;;;10.60;99.90;;;;;;5061962;28;20444;-69
2022/02/16 10:46:56;;;;;;;1.80;1.70;;;10.70;99.90;;;;;;5047932;28;20933;-68
2022/02/16 10:49:22;;;;;;;1.70;1.60;;;10.70;99.90;;;;;;5048839;28;20428;-71
2022/02/16 10:52:09;;;;;;;1.90;1.70;;;10.70;99.90;;;;;;5044953;28;20427;-69
2022/02/16 10:54:36;;;;;;;2.10;2.00;;;10.80;99.90;;;;;;5042336;28;20468;-69
2022/02/16 10:57:02;;;;;;;2.07;1.87;;;10.80;99.90;;;;;;5048124;28;20412;-68
2022/02/16 10:59:28;;;;;;;1.80;1.70;;;10.80;99.90;;;;;;5048799;28;20360;-69
2022/02/16 11:01:54;;;;;;;2.10;1.77;;;10.80;99.90;;;;;;5048082;28;20185;-68
2022/02/16 11:04:21;;;;;;;1.80;1.70;;;10.80;99.90;;;;;;5048216;28;20436;-68
2022/02/16 11:06:49;;;;;;;1.90;1.80;;;10.80;99.90;;;;;;5048113;28;20554;-69
2022/02/16 11:09:24;;;;;;;1.90;1.80;;;10.80;99.90;;;;;;5048209;28;20425;-68
2022/02/16 11:11:53;;;;;;;3.23;2.20;;;10.90;99.90;;;;;;5054803;28;20424;-68
2022/02/16 11:14:23;;;;;;;1.80;1.70;;;10.90;99.90;;;;;;5041393;28;20472;-68
2022/02/16 11:16:49;;;;;;;2.07;1.97;;;10.90;99.90;;;;;;5041175;28;20425;-69
2022/02/16 11:19:37;;;;;;;2.43;2.27;;;10.90;99.90;;;;;;5043923;28;20885;-69
2022/02/16 11:22:08;;;;;;;2.20;2.10;;;11.00;99.90;;;;;;5048684;28;20405;-68
2022/02/16 11:24:42;;;;;;;2.87;2.67;;;11.00;99.90;;;;;;5049610;28;20424;-67
2022/02/16 11:27:30;;;;;;;2.83;2.63;;;11.00;99.90;;;;;;5049377;28;20439;-68
2022/02/16 11:30:01;;;;;;;2.97;2.77;;;11.00;99.90;;;;;;5051620;28;20424;-68
2022/02/16 11:32:30;;;;;;;3.47;2.90;;;11.00;99.90;;;;;;5051916;28;20519;-68
2022/02/16 11:35:23;;;;;;;3.07;2.83;;;11.10;99.90;;;;;;5050427;28;20856;-67
2022/02/16 11:38:07;;;;;;;3.00;2.63;;;11.10;99.90;;;;;;5051066;28;20408;-68
2022/02/16 11:40:38;;;;;;;2.93;2.73;;;11.20;99.90;;;;;;5051226;28;20407;-66
2022/02/16 11:43:05;;;;;;;2.97;2.67;;;11.10;99.90;;;;;;5051843;28;20506;-69
2022/02/16 11:45:51;;;;;;;2.93;2.63;;;11.10;99.90;;;;;;5050947;28;20424;-69
2022/02/16 11:48:56;;;;;;;3.27;3.07;;;11.20;99.90;;;;;;5051553;28;20403;-71
2022/02/16 11:51:25;;;;;;;2.70;2.50;;;11.20;99.90;;;;;;5028496;28;20500;-69
2022/02/16 11:53:54;;;;;;;3.67;3.37;;;11.20;99.90;;;;;;5012804;28;20516;-68
2022/02/16 11:56:22;;;;;;;3.80;3.50;;;11.20;99.90;;;;;;5009118;28;20430;-68
2022/02/16 11:59:12;;;;;;;4.00;3.70;;;11.30;99.90;;;;;;5009658;28;20877;-68
2022/02/16 12:02:07;;;;;;;7.77;4.40;;;11.20;99.90;;;;;;5009558;28;20417;-67
2022/02/16 12:04:46;;;;;;;4.60;4.10;;;11.30;99.90;;;;;;4994709;28;20442;-69
2022/02/16 12:07:26;;;;;;;5.80;5.20;;;11.30;99.90;;;;;;4993763;28;20419;-68
2022/02/16 12:10:13;;;;;;;5.87;4.93;;;11.30;99.90;;;;;;5010119;28;20414;-67
2022/02/16 12:12:39;;;;;;;6.43;5.83;;;11.30;99.90;;;;;;5009513;28;20851;-69
2022/02/16 12:15:06;;;;;;;7.50;6.03;;;11.30;99.90;;;;;;5011072;28;20474;-68
2022/02/16 12:17:33;;;;;;;6.60;6.00;;;11.30;99.90;;;;;;5010457;28;20430;-68
2022/02/16 12:20:00;;;;;;;6.10;5.50;;;11.30;99.90;;;;;;5012080;28;20967;-69
2022/02/16 12:22:26;;;;;;;6.70;6.00;;;11.40;99.90;;;;;;5047830;28;20490;-68
2022/02/16 12:24:51;;;;;;;7.23;6.40;;;11.40;99.90;;;;;;5083435;28;20558;-69
2022/02/16 12:27:20;;;;;;;7.33;6.17;;;11.50;99.90;;;;;;5085294;28;20166;-68
2022/02/16 12:29:48;;;;;;;9.87;6.97;;;11.50;99.90;;;;;;5079865;28;20177;-69
2022/02/16 12:32:19;;;;;;;9.03;5.10;;;11.50;99.90;;;;;;5075767;28;20402;-70
2022/02/16 12:34:45;;;;;;;5.87;5.37;;;11.40;99.90;;;;;;5037123;28;20909;-68
2022/02/16 12:37:15;;;;;;;8.03;5.13;;;11.50;99.90;;;;;;5024892;28;20433;-69
2022/02/16 12:39:41;;;;;;;5.20;4.80;;;11.50;99.90;;;;;;5064367;28;20420;-69
2022/02/16 12:42:09;;;;;;;4.80;4.47;;;11.50;99.90;;;;;;5063684;28;20405;-68
2022/02/16 12:44:36;;;;;;;4.60;4.30;;;11.50;99.90;;;;;;5065973;28;20200;-69
2022/02/16 12:47:04;;;;;;;4.20;3.90;;;11.50;99.90;;;;;;5048372;28;20889;-69
2022/02/16 12:49:31;;;;;;;3.43;3.23;;;11.50;99.90;;;;;;5067548;28;20498;-68
2022/02/16 12:51:59;;;;;;;3.67;3.40;;;11.60;99.90;;;;;;5063576;28;20401;-68
2022/02/16 12:54:27;;;;;;;3.17;2.87;;;11.60;99.90;;;;;;5054796;28;20468;-69
2022/02/16 12:56:56;;;;;;;2.67;2.47;;;11.60;99.90;;;;;;5054206;28;20416;-68
2022/02/16 12:59:30;;;;;;;2.90;2.70;;;11.70;99.90;;;;;;5054486;28;20416;-69
2022/02/16 13:01:58;;;;;;;2.73;2.63;;;11.70;99.90;;;;;;5054012;28;20795;-68
2022/02/16 13:04:25;;;;;;;2.97;2.67;;;11.70;99.90;;;;;;5054598;28;20437;-69
2022/02/16 13:06:55;;;;;;;2.83;2.63;;;11.70;99.90;;;;;;5053851;28;20448;-68
2022/02/16 13:09:22;;;;;;;2.77;2.47;;;11.80;99.90;;;;;;5054472;28;20558;-68